KDBN

W H 'bud' Barron Airport

Dublin, Georgia, USA
METAR KDBN 182315Z AUTO 00000KT 10SM CLR 23/22 A3003 RMK AO2
Observed Flight Rules
Aug-18 @ 23:15 UTC (30 minutes ago) Visual Flight Rules
Visibility Clouds
10 miles
  • Clear skies
Temperatures Readings
Current 23°C / 73°F
Dewpoint 22°C / 72°F
Humidity 94%
Altimeter 30.03" Hg
Pressure 1017 hPa
Elevation 94
METAR KDBN 182315Z AUTO 00000KT 10SM CLR 23/22 A3003 RMK AO2
Observed Flight Rules
Aug-18 @ 23:15 UTC
(30 minutes ago)
VFR
Clouds
  • Clear skies
Temperature Dewpoint
23°C / 73°F 22°C / 72°F
Humidity Altimeter Pressure
94% 30.03" Hg 1017 hPa